This is the latest recevied weather packets stored in our database for station/object KR0L-13. If no packets are shown the sender has not sent any weather packets the latest 1 day(s).
| Time | Temp. | Humidity | Pressure | Rain* | Wind** | Luminosity | Snow |
|---|---|---|---|---|---|---|---|
| 1778019621 | 11.67° C | 60% | 1011.3 hPa | 0 mm | 4.92 m/s, 315° | - | - |
| 1778019021 | 11.67° C | 62% | 1011.3 hPa | 0 mm | 3.58 m/s, 338° | - | - |
| 1778018421 | 11.67° C | 62% | 1011.4 hPa | 0 mm | 4.02 m/s, 338° | - | - |
| 1778017821 | 11.67° C | 63% | 1011.4 hPa | 0 mm | 4.02 m/s, 315° | - | - |
| 1778017221 | 12.22° C | 62% | 1011.3 hPa | 0 mm | 4.47 m/s, 338° | - | - |
| 1778016621 | 12.22° C | 64% | 1011.2 hPa | 0 mm | 4.47 m/s, 338° | - | - |
| 1778016021 | 12.22° C | 63% | 1011.3 hPa | 0 mm | 4.02 m/s, 338° | - | - |
| 1778015421 | 11.67° C | 63% | 1011.6 hPa | 0 mm | 4.92 m/s, 338° | - | - |
| 1778014821 | 11.67° C | 69% | 1011.6 hPa | 0 mm | 4.47 m/s, 338° | - | - |
| 1778014221 | 11.67° C | 68% | 1011.6 hPa | 0 mm | 4.02 m/s, 338° | - | - |
| 1778013621 | 11.67° C | 68% | 1011.6 hPa | 0 mm | 4.92 m/s, 338° | - | - |
| 1778013021 | 11.11° C | 69% | 1011.8 hPa | 0 mm | 4.02 m/s, 338° | - | - |
| 1778012421 | 11.11° C | 68% | 1011.8 hPa | 0 mm | 4.47 m/s, 338° | - | - |
| 1778011821 | 11.11° C | 71% | 1011.6 hPa | 0 mm | 4.47 m/s, 338° | - | - |
| 1778011221 | 11.11° C | 71% | 1011.7 hPa | 0 mm | 4.47 m/s, 338° | - | - |
| 1778010621 | 11.11° C | 74% | 1011.7 hPa | 0 mm | 3.58 m/s, 338° | - | - |
| 1778010020 | 11.11° C | 78% | 1011.7 hPa | 0 mm | 3.58 m/s, 0° | - | - |
| 1778009420 | 10.56° C | 78% | 1011.8 hPa | 0 mm | 4.47 m/s, 338° | - | - |
| 1778008820 | 10.56° C | 82% | 1011.4 hPa | 0.25 mm | 3.58 m/s, 0° | - | - |
| 1778008220 | 10° C | 81% | 1011.6 hPa | 0.25 mm | 4.47 m/s, 0° | - | - |
| 1778007621 | 9.44° C | 82% | 1011.6 hPa | 0.25 mm | 4.92 m/s, 0° | - | - |
| 1778007020 | 9.44° C | 85% | 1011.3 hPa | 0.25 mm | 4.47 m/s, 0° | - | - |
| 1778006420 | 8.89° C | 85% | 1011.3 hPa | 0.25 mm | 4.47 m/s, 338° | - | - |
| 1778005820 | 8.89° C | 85% | 1011.4 hPa | 0.25 mm | 3.58 m/s, 338° | - | - |
| 1778005220 | 8.89° C | 80% | 1011.4 hPa | 0 mm | 4.92 m/s, 338° | - | - |
* Rain latest hour (hover to see other rain measurements)
** Current wind speed in m/s (hover to see current wind gust speed)